sensor_id;sensor_type;location;lat;lon;timestamp;P1;durP1;ratioP1;P2;durP2;ratioP2
5217;SDS011;26539;51.064;6.346;2022-12-10T00:01:31;44.15;;;25.17;;
5217;SDS011;26539;51.064;6.346;2022-12-10T00:03:58;60.72;;;26.88;;
5217;SDS011;26539;51.064;6.346;2022-12-10T00:06:31;58.55;;;25.75;;
5217;SDS011;26539;51.064;6.346;2022-12-10T00:08:58;51.40;;;26.00;;
5217;SDS011;26539;51.064;6.346;2022-12-10T00:11:25;60.08;;;27.50;;
5217;SDS011;26539;51.064;6.346;2022-12-10T00:13:51;46.57;;;25.23;;
5217;SDS011;26539;51.064;6.346;2022-12-10T00:16:18;53.08;;;27.15;;
5217;SDS011;26539;51.064;6.346;2022-12-10T00:18:44;48.47;;;26.17;;
5217;SDS011;26539;51.064;6.346;2022-12-10T00:21:11;50.97;;;27.45;;
5217;SDS011;26539;51.064;6.346;2022-12-10T00:23:40;54.63;;;29.17;;
5217;SDS011;26539;51.064;6.346;2022-12-10T00:26:07;51.37;;;27.03;;
5217;SDS011;26539;51.064;6.346;2022-12-10T00:28:38;56.35;;;27.95;;
5217;SDS011;26539;51.064;6.346;2022-12-10T00:31:05;55.08;;;28.10;;
5217;SDS011;26539;51.064;6.346;2022-12-10T00:33:33;64.22;;;31.02;;
5217;SDS011;26539;51.064;6.346;2022-12-10T00:36:06;57.33;;;29.17;;
5217;SDS011;26539;51.064;6.346;2022-12-10T00:38:33;61.25;;;29.30;;
5217;SDS011;26539;51.064;6.346;2022-12-10T00:40:58;52.77;;;28.70;;
5217;SDS011;26539;51.064;6.346;2022-12-10T00:43:25;53.33;;;27.33;;
5217;SDS011;26539;51.064;6.346;2022-12-10T00:45:50;61.30;;;27.27;;
5217;SDS011;26539;51.064;6.346;2022-12-10T00:48:16;54.90;;;27.20;;
5217;SDS011;26539;51.064;6.346;2022-12-10T00:50:41;52.67;;;26.80;;
5217;SDS011;26539;51.064;6.346;2022-12-10T00:53:07;57.20;;;27.00;;
5217;SDS011;26539;51.064;6.346;2022-12-10T00:55:32;49.93;;;25.57;;
5217;SDS011;26539;51.064;6.346;2022-12-10T00:57:58;46.13;;;25.97;;
5217;SDS011;26539;51.064;6.346;2022-12-10T01:00:23;53.67;;;29.30;;
5217;SDS011;26539;51.064;6.346;2022-12-10T01:02:49;51.90;;;27.40;;
5217;SDS011;26539;51.064;6.346;2022-12-10T01:05:15;56.83;;;26.10;;
5217;SDS011;26539;51.064;6.346;2022-12-10T01:07:40;45.87;;;25.07;;
5217;SDS011;26539;51.064;6.346;2022-12-10T01:10:06;55.50;;;26.50;;
5217;SDS011;26539;51.064;6.346;2022-12-10T01:12:32;52.13;;;26.37;;
5217;SDS011;26539;51.064;6.346;2022-12-10T01:14:58;48.78;;;25.33;;
5217;SDS011;26539;51.064;6.346;2022-12-10T01:17:24;54.63;;;27.10;;
5217;SDS011;26539;51.064;6.346;2022-12-10T01:19:49;50.40;;;25.30;;
5217;SDS011;26539;51.064;6.346;2022-12-10T01:22:15;53.93;;;26.97;;
5217;SDS011;26539;51.064;6.346;2022-12-10T01:24:40;54.67;;;26.90;;
5217;SDS011;26539;51.064;6.346;2022-12-10T01:27:06;55.30;;;28.10;;
5217;SDS011;26539;51.064;6.346;2022-12-10T01:29:31;58.20;;;27.90;;
5217;SDS011;26539;51.064;6.346;2022-12-10T01:31:57;59.60;;;29.30;;
5217;SDS011;26539;51.064;6.346;2022-12-10T01:34:23;51.80;;;26.50;;
5217;SDS011;26539;51.064;6.346;2022-12-10T01:36:50;57.88;;;27.02;;
5217;SDS011;26539;51.064;6.346;2022-12-10T01:39:17;51.60;;;26.58;;
5217;SDS011;26539;51.064;6.346;2022-12-10T01:41:49;56.45;;;25.95;;
5217;SDS011;26539;51.064;6.346;2022-12-10T01:46:46;57.90;;;26.90;;
5217;SDS011;26539;51.064;6.346;2022-12-10T01:49:14;51.00;;;26.90;;
5217;SDS011;26539;51.064;6.346;2022-12-10T01:51:45;52.38;;;26.50;;
5217;SDS011;26539;51.064;6.346;2022-12-10T01:54:14;55.40;;;26.95;;
5217;SDS011;26539;51.064;6.346;2022-12-10T01:56:49;45.97;;;27.08;;
5217;SDS011;26539;51.064;6.346;2022-12-10T01:59:19;49.60;;;27.05;;
5217;SDS011;26539;51.064;6.346;2022-12-10T02:01:50;53.50;;;27.10;;
5217;SDS011;26539;51.064;6.346;2022-12-10T02:04:33;66.03;;;28.33;;
5217;SDS011;26539;51.064;6.346;2022-12-10T02:09:42;59.75;;;28.20;;
5217;SDS011;26539;51.064;6.346;2022-12-10T02:15:26;74.43;;;29.38;;
5217;SDS011;26539;51.064;6.346;2022-12-10T02:20:53;88.00;;;31.80;;
5217;SDS011;26539;51.064;6.346;2022-12-10T02:23:24;97.97;;;32.03;;
5217;SDS011;26539;51.064;6.346;2022-12-10T02:26:10;106.50;;;31.35;;
5217;SDS011;26539;51.064;6.346;2022-12-10T02:29:38;107.35;;;32.03;;
5217;SDS011;26539;51.064;6.346;2022-12-10T02:31:46;87.50;;;33.28;;
5217;SDS011;26539;51.064;6.346;2022-12-10T02:34:18;86.47;;;30.40;;
5217;SDS011;26539;51.064;6.346;2022-12-10T02:36:47;101.22;;;30.65;;
5217;SDS011;26539;51.064;6.346;2022-12-10T02:39:17;99.10;;;32.63;;
5217;SDS011;26539;51.064;6.346;2022-12-10T02:41:48;97.93;;;29.08;;
5217;SDS011;26539;51.064;6.346;2022-12-10T02:44:17;77.10;;;28.45;;
5217;SDS011;26539;51.064;6.346;2022-12-10T02:46:48;122.10;;;29.27;;
5217;SDS011;26539;51.064;6.346;2022-12-10T02:49:15;96.22;;;28.42;;
5217;SDS011;26539;51.064;6.346;2022-12-10T02:51:42;107.72;;;33.63;;
5217;SDS011;26539;51.064;6.346;2022-12-10T02:54:33;117.43;;;35.90;;
5217;SDS011;26539;51.064;6.346;2022-12-10T02:57:00;103.95;;;34.15;;
5217;SDS011;26539;51.064;6.346;2022-12-10T02:59:33;120.00;;;39.80;;
5217;SDS011;26539;51.064;6.346;2022-12-10T03:02:12;85.30;;;31.48;;
5217;SDS011;26539;51.064;6.346;2022-12-10T03:08:04;92.72;;;36.78;;
5217;SDS011;26539;51.064;6.346;2022-12-10T03:13:06;106.72;;;36.72;;
5217;SDS011;26539;51.064;6.346;2022-12-10T03:15:35;94.72;;;33.53;;
5217;SDS011;26539;51.064;6.346;2022-12-10T03:18:06;107.75;;;35.38;;
5217;SDS011;26539;51.064;6.346;2022-12-10T03:20:34;85.43;;;30.63;;
5217;SDS011;26539;51.064;6.346;2022-12-10T03:23:03;77.25;;;31.88;;
5217;SDS011;26539;51.064;6.346;2022-12-10T03:25:34;82.50;;;28.92;;
5217;SDS011;26539;51.064;6.346;2022-12-10T03:28:01;61.78;;;27.95;;
5217;SDS011;26539;51.064;6.346;2022-12-10T03:30:26;73.33;;;32.60;;
5217;SDS011;26539;51.064;6.346;2022-12-10T03:32:53;65.07;;;28.48;;
5217;SDS011;26539;51.064;6.346;2022-12-10T03:35:20;73.30;;;30.83;;
5217;SDS011;26539;51.064;6.346;2022-12-10T03:37:47;87.40;;;30.10;;
5217;SDS011;26539;51.064;6.346;2022-12-10T03:40:14;97.25;;;33.60;;
5217;SDS011;26539;51.064;6.346;2022-12-10T03:42:42;98.75;;;37.00;;
5217;SDS011;26539;51.064;6.346;2022-12-10T03:45:08;93.13;;;35.10;;
5217;SDS011;26539;51.064;6.346;2022-12-10T03:47:34;98.70;;;31.40;;
5217;SDS011;26539;51.064;6.346;2022-12-10T03:50:00;89.70;;;33.53;;
5217;SDS011;26539;51.064;6.346;2022-12-10T03:52:25;95.40;;;34.73;;
5217;SDS011;26539;51.064;6.346;2022-12-10T03:54:50;88.47;;;36.30;;
5217;SDS011;26539;51.064;6.346;2022-12-10T03:57:16;85.07;;;34.90;;
5217;SDS011;26539;51.064;6.346;2022-12-10T03:59:41;86.70;;;36.67;;
5217;SDS011;26539;51.064;6.346;2022-12-10T04:02:07;90.87;;;35.43;;
5217;SDS011;26539;51.064;6.346;2022-12-10T04:04:32;85.90;;;33.90;;
5217;SDS011;26539;51.064;6.346;2022-12-10T04:06:58;83.27;;;32.67;;
5217;SDS011;26539;51.064;6.346;2022-12-10T04:09:23;80.87;;;32.50;;
5217;SDS011;26539;51.064;6.346;2022-12-10T04:11:49;60.87;;;28.83;;
5217;SDS011;26539;51.064;6.346;2022-12-10T04:14:14;79.80;;;30.47;;
5217;SDS011;26539;51.064;6.346;2022-12-10T04:16:58;73.35;;;31.83;;
5217;SDS011;26539;51.064;6.346;2022-12-10T04:19:24;69.53;;;31.93;;
5217;SDS011;26539;51.064;6.346;2022-12-10T04:21:50;75.83;;;32.60;;
5217;SDS011;26539;51.064;6.346;2022-12-10T04:24:34;67.57;;;29.55;;
5217;SDS011;26539;51.064;6.346;2022-12-10T04:27:21;74.75;;;31.05;;
5217;SDS011;26539;51.064;6.346;2022-12-10T04:29:55;68.78;;;31.75;;
5217;SDS011;26539;51.064;6.346;2022-12-10T04:32:21;62.67;;;29.98;;
5217;SDS011;26539;51.064;6.346;2022-12-10T04:34:48;72.32;;;33.95;;
5217;SDS011;26539;51.064;6.346;2022-12-10T04:37:14;76.20;;;32.63;;
5217;SDS011;26539;51.064;6.346;2022-12-10T04:39:41;75.20;;;31.75;;
5217;SDS011;26539;51.064;6.346;2022-12-10T04:42:07;69.83;;;32.23;;
5217;SDS011;26539;51.064;6.346;2022-12-10T04:44:33;68.22;;;30.73;;
5217;SDS011;26539;51.064;6.346;2022-12-10T04:46:58;81.23;;;32.03;;
5217;SDS011;26539;51.064;6.346;2022-12-10T04:49:24;77.57;;;29.83;;
5217;SDS011;26539;51.064;6.346;2022-12-10T04:51:50;71.60;;;32.83;;
5217;SDS011;26539;51.064;6.346;2022-12-10T04:54:16;82.50;;;30.90;;
5217;SDS011;26539;51.064;6.346;2022-12-10T04:56:42;83.10;;;34.37;;
5217;SDS011;26539;51.064;6.346;2022-12-10T04:59:08;86.00;;;35.40;;
5217;SDS011;26539;51.064;6.346;2022-12-10T05:01:34;81.13;;;34.78;;
5217;SDS011;26539;51.064;6.346;2022-12-10T05:04:00;97.70;;;36.93;;
5217;SDS011;26539;51.064;6.346;2022-12-10T05:06:27;87.55;;;34.22;;
5217;SDS011;26539;51.064;6.346;2022-12-10T05:08:54;94.93;;;33.90;;
5217;SDS011;26539;51.064;6.346;2022-12-10T05:11:20;120.47;;;33.13;;
5217;SDS011;26539;51.064;6.346;2022-12-10T05:13:47;106.35;;;36.30;;
5217;SDS011;26539;51.064;6.346;2022-12-10T05:16:15;97.90;;;34.77;;
5217;SDS011;26539;51.064;6.346;2022-12-10T05:18:42;79.75;;;32.47;;
5217;SDS011;26539;51.064;6.346;2022-12-10T05:21:10;102.70;;;37.10;;
5217;SDS011;26539;51.064;6.346;2022-12-10T05:23:38;85.25;;;33.65;;
5217;SDS011;26539;51.064;6.346;2022-12-10T05:26:06;96.63;;;35.05;;
5217;SDS011;26539;51.064;6.346;2022-12-10T05:28:38;75.72;;;31.45;;
5217;SDS011;26539;51.064;6.346;2022-12-10T05:31:16;72.22;;;30.90;;
5217;SDS011;26539;51.064;6.346;2022-12-10T05:33:42;78.72;;;32.20;;
5217;SDS011;26539;51.064;6.346;2022-12-10T05:36:09;82.43;;;34.17;;
5217;SDS011;26539;51.064;6.346;2022-12-10T05:38:36;93.05;;;33.63;;
5217;SDS011;26539;51.064;6.346;2022-12-10T05:41:02;80.63;;;29.40;;
5217;SDS011;26539;51.064;6.346;2022-12-10T05:43:29;96.68;;;35.38;;
5217;SDS011;26539;51.064;6.346;2022-12-10T05:45:59;88.37;;;33.53;;
5217;SDS011;26539;51.064;6.346;2022-12-10T05:48:33;91.32;;;34.45;;
5217;SDS011;26539;51.064;6.346;2022-12-10T05:51:06;78.72;;;33.92;;
5217;SDS011;26539;51.064;6.346;2022-12-10T05:53:33;85.22;;;35.15;;
5217;SDS011;26539;51.064;6.346;2022-12-10T05:56:00;92.20;;;34.55;;
5217;SDS011;26539;51.064;6.346;2022-12-10T05:58:27;92.82;;;34.75;;
5217;SDS011;26539;51.064;6.346;2022-12-10T06:00:54;81.57;;;32.00;;
5217;SDS011;26539;51.064;6.346;2022-12-10T06:03:22;80.13;;;32.60;;
5217;SDS011;26539;51.064;6.346;2022-12-10T06:05:49;73.45;;;32.55;;
5217;SDS011;26539;51.064;6.346;2022-12-10T06:08:15;71.70;;;32.90;;
5217;SDS011;26539;51.064;6.346;2022-12-10T06:10:40;88.43;;;34.23;;
5217;SDS011;26539;51.064;6.346;2022-12-10T06:13:06;87.70;;;33.10;;
5217;SDS011;26539;51.064;6.346;2022-12-10T06:15:31;76.57;;;30.93;;
5217;SDS011;26539;51.064;6.346;2022-12-10T06:17:57;84.20;;;34.43;;
5217;SDS011;26539;51.064;6.346;2022-12-10T06:20:24;74.70;;;30.87;;
5217;SDS011;26539;51.064;6.346;2022-12-10T06:22:50;84.65;;;36.25;;
5217;SDS011;26539;51.064;6.346;2022-12-10T06:25:16;80.53;;;32.78;;
5217;SDS011;26539;51.064;6.346;2022-12-10T06:27:42;79.40;;;31.80;;
5217;SDS011;26539;51.064;6.346;2022-12-10T06:30:08;79.50;;;31.27;;
5217;SDS011;26539;51.064;6.346;2022-12-10T06:32:35;70.97;;;32.72;;
5217;SDS011;26539;51.064;6.346;2022-12-10T06:35:01;66.70;;;29.45;;
5217;SDS011;26539;51.064;6.346;2022-12-10T06:37:27;77.10;;;31.92;;
5217;SDS011;26539;51.064;6.346;2022-12-10T06:39:52;70.80;;;31.20;;
5217;SDS011;26539;51.064;6.346;2022-12-10T06:42:19;74.87;;;31.67;;
5217;SDS011;26539;51.064;6.346;2022-12-10T06:44:45;77.45;;;36.95;;
5217;SDS011;26539;51.064;6.346;2022-12-10T06:47:10;81.50;;;32.47;;
5217;SDS011;26539;51.064;6.346;2022-12-10T06:49:36;70.07;;;31.30;;
5217;SDS011;26539;51.064;6.346;2022-12-10T06:52:02;75.57;;;32.50;;
5217;SDS011;26539;51.064;6.346;2022-12-10T06:54:28;68.33;;;32.97;;
5217;SDS011;26539;51.064;6.346;2022-12-10T06:56:53;80.22;;;31.30;;
5217;SDS011;26539;51.064;6.346;2022-12-10T06:59:19;71.33;;;32.47;;
5217;SDS011;26539;51.064;6.346;2022-12-10T07:01:45;72.43;;;32.03;;
5217;SDS011;26539;51.064;6.346;2022-12-10T07:04:11;73.80;;;34.22;;
5217;SDS011;26539;51.064;6.346;2022-12-10T07:06:37;76.60;;;30.77;;
5217;SDS011;26539;51.064;6.346;2022-12-10T07:09:03;72.33;;;30.57;;
5217;SDS011;26539;51.064;6.346;2022-12-10T07:11:29;73.57;;;34.77;;
5217;SDS011;26539;51.064;6.346;2022-12-10T07:13:56;75.65;;;35.80;;
5217;SDS011;26539;51.064;6.346;2022-12-10T07:16:26;74.22;;;33.20;;
5217;SDS011;26539;51.064;6.346;2022-12-10T07:18:54;70.60;;;30.85;;
5217;SDS011;26539;51.064;6.346;2022-12-10T07:21:25;69.70;;;29.50;;
5217;SDS011;26539;51.064;6.346;2022-12-10T07:23:56;68.47;;;29.95;;
5217;SDS011;26539;51.064;6.346;2022-12-10T07:26:33;65.55;;;27.75;;
5217;SDS011;26539;51.064;6.346;2022-12-10T07:29:02;75.40;;;31.58;;
5217;SDS011;26539;51.064;6.346;2022-12-10T07:31:35;70.68;;;30.45;;
5217;SDS011;26539;51.064;6.346;2022-12-10T07:34:24;66.95;;;28.02;;
5217;SDS011;26539;51.064;6.346;2022-12-10T07:37:00;57.05;;;27.40;;
5217;SDS011;26539;51.064;6.346;2022-12-10T07:39:26;54.10;;;27.65;;
5217;SDS011;26539;51.064;6.346;2022-12-10T07:42:00;55.22;;;25.98;;
5217;SDS011;26539;51.064;6.346;2022-12-10T07:44:51;42.40;;;22.35;;
5217;SDS011;26539;51.064;6.346;2022-12-10T07:47:20;56.45;;;23.35;;
5217;SDS011;26539;51.064;6.346;2022-12-10T07:49:46;49.67;;;25.83;;
5217;SDS011;26539;51.064;6.346;2022-12-10T07:52:30;45.95;;;23.58;;
5217;SDS011;26539;51.064;6.346;2022-12-10T07:55:03;46.00;;;22.45;;
5217;SDS011;26539;51.064;6.346;2022-12-10T07:57:37;41.67;;;22.10;;
5217;SDS011;26539;51.064;6.346;2022-12-10T08:00:06;49.85;;;23.85;;
5217;SDS011;26539;51.064;6.346;2022-12-10T08:02:32;52.92;;;23.00;;
5217;SDS011;26539;51.064;6.346;2022-12-10T08:04:58;49.67;;;21.93;;
5217;SDS011;26539;51.064;6.346;2022-12-10T08:07:23;38.60;;;22.80;;
5217;SDS011;26539;51.064;6.346;2022-12-10T08:09:54;47.13;;;21.52;;
5217;SDS011;26539;51.064;6.346;2022-12-10T08:12:37;49.73;;;21.50;;
5217;SDS011;26539;51.064;6.346;2022-12-10T08:15:06;46.25;;;23.10;;
5217;SDS011;26539;51.064;6.346;2022-12-10T08:17:34;42.90;;;20.95;;
5217;SDS011;26539;51.064;6.346;2022-12-10T08:20:03;57.40;;;23.55;;
5217;SDS011;26539;51.064;6.346;2022-12-10T08:22:28;50.23;;;22.30;;
5217;SDS011;26539;51.064;6.346;2022-12-10T08:24:54;49.23;;;26.03;;
5217;SDS011;26539;51.064;6.346;2022-12-10T08:27:22;47.28;;;22.92;;
5217;SDS011;26539;51.064;6.346;2022-12-10T08:29:48;49.00;;;22.20;;
5217;SDS011;26539;51.064;6.346;2022-12-10T08:32:13;53.90;;;22.97;;
5217;SDS011;26539;51.064;6.346;2022-12-10T08:34:39;50.73;;;24.27;;
5217;SDS011;26539;51.064;6.346;2022-12-10T08:37:05;49.53;;;23.80;;
5217;SDS011;26539;51.064;6.346;2022-12-10T08:39:30;47.80;;;22.90;;
5217;SDS011;26539;51.064;6.346;2022-12-10T08:41:56;50.53;;;25.43;;
5217;SDS011;26539;51.064;6.346;2022-12-10T08:44:21;47.50;;;23.20;;
5217;SDS011;26539;51.064;6.346;2022-12-10T08:46:47;49.43;;;23.10;;
5217;SDS011;26539;51.064;6.346;2022-12-10T08:49:12;53.57;;;24.73;;
5217;SDS011;26539;51.064;6.346;2022-12-10T08:51:38;49.40;;;23.70;;
5217;SDS011;26539;51.064;6.346;2022-12-10T08:54:04;48.83;;;21.70;;
5217;SDS011;26539;51.064;6.346;2022-12-10T08:56:29;46.47;;;23.33;;
5217;SDS011;26539;51.064;6.346;2022-12-10T08:58:55;41.25;;;21.35;;
5217;SDS011;26539;51.064;6.346;2022-12-10T09:01:21;37.07;;;20.33;;
5217;SDS011;26539;51.064;6.346;2022-12-10T09:03:47;40.50;;;20.67;;
5217;SDS011;26539;51.064;6.346;2022-12-10T09:06:14;40.20;;;20.97;;
5217;SDS011;26539;51.064;6.346;2022-12-10T09:08:41;38.35;;;20.73;;
5217;SDS011;26539;51.064;6.346;2022-12-10T09:11:08;41.37;;;20.30;;
5217;SDS011;26539;51.064;6.346;2022-12-10T09:13:36;35.80;;;19.88;;
5217;SDS011;26539;51.064;6.346;2022-12-10T09:16:01;35.00;;;19.10;;
5217;SDS011;26539;51.064;6.346;2022-12-10T09:18:27;38.63;;;19.90;;
5217;SDS011;26539;51.064;6.346;2022-12-10T09:20:53;39.67;;;20.03;;
5217;SDS011;26539;51.064;6.346;2022-12-10T09:23:18;34.43;;;20.50;;
5217;SDS011;26539;51.064;6.346;2022-12-10T09:25:44;45.53;;;21.93;;
5217;SDS011;26539;51.064;6.346;2022-12-10T09:28:09;46.03;;;22.97;;
5217;SDS011;26539;51.064;6.346;2022-12-10T09:30:35;35.03;;;20.30;;
5217;SDS011;26539;51.064;6.346;2022-12-10T09:33:01;39.43;;;21.20;;
5217;SDS011;26539;51.064;6.346;2022-12-10T09:35:26;38.60;;;22.00;;
5217;SDS011;26539;51.064;6.346;2022-12-10T09:37:52;32.28;;;19.38;;
5217;SDS011;26539;51.064;6.346;2022-12-10T09:40:18;35.83;;;19.90;;
5217;SDS011;26539;51.064;6.346;2022-12-10T09:43:01;36.30;;;20.42;;
5217;SDS011;26539;51.064;6.346;2022-12-10T09:51:31;35.30;;;19.58;;
5217;SDS011;26539;51.064;6.346;2022-12-10T09:53:59;32.00;;;18.85;;
5217;SDS011;26539;51.064;6.346;2022-12-10T09:56:33;31.70;;;19.52;;
5217;SDS011;26539;51.064;6.346;2022-12-10T09:59:10;39.67;;;21.73;;
5217;SDS011;26539;51.064;6.346;2022-12-10T10:02:03;36.75;;;19.92;;
5217;SDS011;26539;51.064;6.346;2022-12-10T10:04:43;39.13;;;20.90;;
5217;SDS011;26539;51.064;6.346;2022-12-10T10:07:11;30.50;;;17.83;;
5217;SDS011;26539;51.064;6.346;2022-12-10T10:09:46;31.65;;;18.98;;
5217;SDS011;26539;51.064;6.346;2022-12-10T10:12:12;29.80;;;16.63;;
5217;SDS011;26539;51.064;6.346;2022-12-10T10:14:43;27.70;;;17.25;;
5217;SDS011;26539;51.064;6.346;2022-12-10T10:17:10;38.05;;;19.33;;
5217;SDS011;26539;51.064;6.346;2022-12-10T10:19:48;32.97;;;19.13;;
5217;SDS011;26539;51.064;6.346;2022-12-10T10:22:14;32.65;;;19.60;;
5217;SDS011;26539;51.064;6.346;2022-12-10T10:24:41;44.03;;;20.80;;
5217;SDS011;26539;51.064;6.346;2022-12-10T10:27:12;33.15;;;20.00;;
5217;SDS011;26539;51.064;6.346;2022-12-10T10:29:45;32.90;;;19.02;;
5217;SDS011;26539;51.064;6.346;2022-12-10T10:34:54;33.33;;;19.13;;
5217;SDS011;26539;51.064;6.346;2022-12-10T10:37:27;38.40;;;20.38;;
5217;SDS011;26539;51.064;6.346;2022-12-10T10:40:04;34.83;;;18.92;;
5217;SDS011;26539;51.064;6.346;2022-12-10T10:42:38;36.10;;;18.45;;
5217;SDS011;26539;51.064;6.346;2022-12-10T10:48:04;36.13;;;20.75;;
5217;SDS011;26539;51.064;6.346;2022-12-10T10:50:43;38.22;;;20.27;;
5217;SDS011;26539;51.064;6.346;2022-12-10T10:55:54;44.45;;;21.40;;
5217;SDS011;26539;51.064;6.346;2022-12-10T10:58:22;45.00;;;21.98;;
5217;SDS011;26539;51.064;6.346;2022-12-10T11:00:53;36.83;;;22.23;;
5217;SDS011;26539;51.064;6.346;2022-12-10T11:03:27;35.55;;;20.42;;
5217;SDS011;26539;51.064;6.346;2022-12-10T11:05:56;36.15;;;20.52;;
5217;SDS011;26539;51.064;6.346;2022-12-10T11:08:23;42.83;;;22.52;;
5217;SDS011;26539;51.064;6.346;2022-12-10T11:10:58;40.80;;;23.05;;
5217;SDS011;26539;51.064;6.346;2022-12-10T11:13:29;42.15;;;22.25;;
5217;SDS011;26539;51.064;6.346;2022-12-10T11:16:17;45.13;;;24.67;;
5217;SDS011;26539;51.064;6.346;2022-12-10T11:18:53;39.40;;;22.25;;
5217;SDS011;26539;51.064;6.346;2022-12-10T11:21:32;47.25;;;23.10;;
5217;SDS011;26539;51.064;6.346;2022-12-10T11:23:59;47.67;;;23.75;;
5217;SDS011;26539;51.064;6.346;2022-12-10T11:29:18;52.13;;;27.58;;
5217;SDS011;26539;51.064;6.346;2022-12-10T11:42:32;54.28;;;25.48;;
5217;SDS011;26539;51.064;6.346;2022-12-10T11:45:20;51.92;;;25.35;;
5217;SDS011;26539;51.064;6.346;2022-12-10T11:51:15;51.40;;;25.13;;
5217;SDS011;26539;51.064;6.346;2022-12-10T11:54:04;54.95;;;24.38;;
5217;SDS011;26539;51.064;6.346;2022-12-10T11:56:48;49.60;;;25.92;;
5217;SDS011;26539;51.064;6.346;2022-12-10T11:59:33;51.88;;;25.05;;
5217;SDS011;26539;51.064;6.346;2022-12-10T12:13:26;49.22;;;24.00;;
5217;SDS011;26539;51.064;6.346;2022-12-10T12:16:11;43.58;;;22.83;;
5217;SDS011;26539;51.064;6.346;2022-12-10T12:21:36;40.10;;;19.77;;
5217;SDS011;26539;51.064;6.346;2022-12-10T12:26:36;43.40;;;20.45;;
5217;SDS011;26539;51.064;6.346;2022-12-10T12:29:20;42.45;;;21.73;;
5217;SDS011;26539;51.064;6.346;2022-12-10T12:34:44;39.97;;;20.05;;
5217;SDS011;26539;51.064;6.346;2022-12-10T12:37:16;43.78;;;22.75;;
5217;SDS011;26539;51.064;6.346;2022-12-10T12:45:20;38.78;;;19.83;;
5217;SDS011;26539;51.064;6.346;2022-12-10T12:47:56;42.25;;;21.10;;
5217;SDS011;26539;51.064;6.346;2022-12-10T12:50:47;44.72;;;22.55;;
5217;SDS011;26539;51.064;6.346;2022-12-10T12:53:20;42.30;;;19.75;;
5217;SDS011;26539;51.064;6.346;2022-12-10T12:58:39;41.42;;;20.83;;
5217;SDS011;26539;51.064;6.346;2022-12-10T13:03:43;40.40;;;21.30;;
5217;SDS011;26539;51.064;6.346;2022-12-10T13:06:14;38.28;;;18.92;;
5217;SDS011;26539;51.064;6.346;2022-12-10T13:11:42;41.50;;;19.88;;
5217;SDS011;26539;51.064;6.346;2022-12-10T13:19:22;43.10;;;20.63;;
5217;SDS011;26539;51.064;6.346;2022-12-10T13:25:04;40.03;;;20.23;;
5217;SDS011;26539;51.064;6.346;2022-12-10T13:32:17;42.30;;;21.30;;
5217;SDS011;26539;51.064;6.346;2022-12-10T13:34:43;56.47;;;26.20;;
5217;SDS011;26539;51.064;6.346;2022-12-10T13:42:30;50.92;;;25.63;;
5217;SDS011;26539;51.064;6.346;2022-12-10T13:47:48;59.60;;;25.85;;
5217;SDS011;26539;51.064;6.346;2022-12-10T13:50:19;63.75;;;30.58;;
5217;SDS011;26539;51.064;6.346;2022-12-10T13:52:59;53.03;;;25.50;;
5217;SDS011;26539;51.064;6.346;2022-12-10T13:58:48;142.00;;;79.88;;
5217;SDS011;26539;51.064;6.346;2022-12-10T14:07:08;60.17;;;30.73;;
5217;SDS011;26539;51.064;6.346;2022-12-10T14:09:42;57.28;;;27.48;;
5217;SDS011;26539;51.064;6.346;2022-12-10T14:12:19;60.33;;;27.05;;
5217;SDS011;26539;51.064;6.346;2022-12-10T14:15:04;51.88;;;26.40;;
5217;SDS011;26539;51.064;6.346;2022-12-10T14:17:39;61.25;;;29.00;;
5217;SDS011;26539;51.064;6.346;2022-12-10T14:20:07;58.85;;;26.50;;
5217;SDS011;26539;51.064;6.346;2022-12-10T14:22:39;59.53;;;28.60;;
5217;SDS011;26539;51.064;6.346;2022-12-10T14:25:15;47.58;;;24.80;;
5217;SDS011;26539;51.064;6.346;2022-12-10T14:27:43;53.15;;;24.55;;
5217;SDS011;26539;51.064;6.346;2022-12-10T14:32:38;52.55;;;25.48;;
5217;SDS011;26539;51.064;6.346;2022-12-10T14:35:04;53.63;;;25.53;;
5217;SDS011;26539;51.064;6.346;2022-12-10T14:37:36;59.00;;;28.63;;
5217;SDS011;26539;51.064;6.346;2022-12-10T14:40:07;62.05;;;32.38;;
5217;SDS011;26539;51.064;6.346;2022-12-10T14:42:34;48.55;;;24.77;;
5217;SDS011;26539;51.064;6.346;2022-12-10T14:45:03;66.68;;;31.60;;
5217;SDS011;26539;51.064;6.346;2022-12-10T14:47:38;56.15;;;27.20;;
5217;SDS011;26539;51.064;6.346;2022-12-10T14:50:05;56.10;;;26.00;;
5217;SDS011;26539;51.064;6.346;2022-12-10T14:52:39;54.85;;;29.17;;
5217;SDS011;26539;51.064;6.346;2022-12-10T14:55:14;59.45;;;31.38;;
5217;SDS011;26539;51.064;6.346;2022-12-10T14:57:45;58.92;;;29.75;;
5217;SDS011;26539;51.064;6.346;2022-12-10T15:00:17;55.60;;;25.42;;
5217;SDS011;26539;51.064;6.346;2022-12-10T15:02:45;59.80;;;30.00;;
5217;SDS011;26539;51.064;6.346;2022-12-10T15:05:20;52.10;;;25.45;;
5217;SDS011;26539;51.064;6.346;2022-12-10T15:07:52;56.20;;;24.00;;
5217;SDS011;26539;51.064;6.346;2022-12-10T15:10:23;51.42;;;26.30;;
5217;SDS011;26539;51.064;6.346;2022-12-10T15:12:53;56.83;;;27.35;;
5217;SDS011;26539;51.064;6.346;2022-12-10T15:15:21;52.70;;;25.58;;
5217;SDS011;26539;51.064;6.346;2022-12-10T15:17:54;54.92;;;25.55;;
5217;SDS011;26539;51.064;6.346;2022-12-10T15:20:24;53.90;;;28.10;;
5217;SDS011;26539;51.064;6.346;2022-12-10T15:22:52;58.35;;;26.88;;
5217;SDS011;26539;51.064;6.346;2022-12-10T15:25:23;51.45;;;25.13;;
5217;SDS011;26539;51.064;6.346;2022-12-10T15:27:54;51.83;;;25.25;;
5217;SDS011;26539;51.064;6.346;2022-12-10T15:30:32;51.58;;;25.20;;
5217;SDS011;26539;51.064;6.346;2022-12-10T15:33:00;61.35;;;28.92;;
5217;SDS011;26539;51.064;6.346;2022-12-10T15:35:26;62.88;;;31.85;;
5217;SDS011;26539;51.064;6.346;2022-12-10T15:37:53;50.78;;;24.58;;
5217;SDS011;26539;51.064;6.346;2022-12-10T15:40:23;60.60;;;30.58;;
5217;SDS011;26539;51.064;6.346;2022-12-10T15:42:51;56.08;;;26.13;;
5217;SDS011;26539;51.064;6.346;2022-12-10T15:45:37;116.05;;;57.85;;
5217;SDS011;26539;51.064;6.346;2022-12-10T15:48:06;57.38;;;28.50;;
5217;SDS011;26539;51.064;6.346;2022-12-10T15:50:35;67.57;;;35.15;;
5217;SDS011;26539;51.064;6.346;2022-12-10T15:53:01;69.72;;;32.67;;
5217;SDS011;26539;51.064;6.346;2022-12-10T15:55:26;65.77;;;33.33;;
5217;SDS011;26539;51.064;6.346;2022-12-10T15:57:52;65.33;;;34.57;;
5217;SDS011;26539;51.064;6.346;2022-12-10T16:00:21;59.00;;;28.10;;
5217;SDS011;26539;51.064;6.346;2022-12-10T16:03:04;55.40;;;30.63;;
5217;SDS011;26539;51.064;6.346;2022-12-10T16:05:36;81.28;;;40.75;;
5217;SDS011;26539;51.064;6.346;2022-12-10T16:10:32;66.30;;;29.88;;
5217;SDS011;26539;51.064;6.346;2022-12-10T16:13:10;54.97;;;28.05;;
5217;SDS011;26539;51.064;6.346;2022-12-10T16:15:54;52.78;;;26.20;;
5217;SDS011;26539;51.064;6.346;2022-12-10T16:18:25;56.17;;;26.27;;
5217;SDS011;26539;51.064;6.346;2022-12-10T16:20:56;58.22;;;27.85;;
5217;SDS011;26539;51.064;6.346;2022-12-10T16:23:38;60.30;;;25.98;;
5217;SDS011;26539;51.064;6.346;2022-12-10T16:26:22;57.85;;;27.17;;
5217;SDS011;26539;51.064;6.346;2022-12-10T16:28:53;55.33;;;26.58;;
5217;SDS011;26539;51.064;6.346;2022-12-10T16:31:24;52.75;;;25.65;;
5217;SDS011;26539;51.064;6.346;2022-12-10T16:33:52;61.50;;;26.42;;
5217;SDS011;26539;51.064;6.346;2022-12-10T16:36:20;61.55;;;27.15;;
5217;SDS011;26539;51.064;6.346;2022-12-10T16:38:45;66.77;;;29.43;;
5217;SDS011;26539;51.064;6.346;2022-12-10T16:41:23;63.73;;;27.53;;
5217;SDS011;26539;51.064;6.346;2022-12-10T16:43:49;63.25;;;27.77;;
5217;SDS011;26539;51.064;6.346;2022-12-10T16:46:15;67.63;;;31.20;;